ADDS METAR Data INFO
IDs: Format: Raw Decoded Include TAF

Data at: 0359 UTC 19 Jul 2018

KEEO 190353Z AUTO 24003KT 10SM CLR 24/04 A3023 RMK AO2 SLP133 T02390039
KEEO 190253Z AUTO 05004KT 10SM CLR 27/02 A3020 RMK AO2 SLP121 T02670017 53003
KEEO 190153Z AUTO 01007KT 10SM SCT120 31/01 A3019 RMK AO2 SLP117 T03060006
KEEO 190053Z AUTO 27004KT 10SM CLR 33/M01 A3018 RMK AO2 SLP116 T03281006
KEEO 182353Z AUTO 29007G17KT 10SM CLR 33/M02 A3019 RMK AO2 SLP124 T03331017 10344 20300 56014
KEEO 182253Z AUTO 30010G18KT 10SM CLR 34/M01 A3020 RMK AO2 SLP123 T03441006
KEEO 182153Z AUTO 29016G25KT 10SM CLR 34/M02 A3022 RMK AO2 WSHFT 2040 SLP128 T03391017
KEEO 182100Z AUTO 28008G22KT 250V310 10SM FEW120 32/M01 A3024 RMK AO2 WSHFT 2040 T03221011
KEEO 182053Z AUTO 33012G23KT 10SM FEW120 33/M01 A3024 RMK AO2 WSHFT 2036 SLP133 T03331011 58015
KEEO 181953Z AUTO 31009G17KT 10SM SCT110 33/01 A3026 RMK AO2 SLP139 T03330006
KEEO 181853Z AUTO 25010G22KT 10SM CLR 32/01 A3028 RMK AO2 SLP144 T03220006
KEEO 181753Z AUTO VRB06KT 10SM CLR 31/04 A3029 RMK AO2 SLP156 T03060039 10306 20100 58013
KEEO 181653Z AUTO 15004KT 10SM CLR 27/05 A3031 RMK AO2 SLP166 T02720050
KEEO 181553Z AUTO VRB04KT 10SM CLR 23/07 A3033 RMK AO2 SLP175 T02330072
KEEO 181453Z AUTO 00000KT 10SM CLR 21/06 A3034 RMK AO2 SLP174 T02060056 50002
KEEO 181353Z AUTO 13005KT 10SM CLR 17/06 A3034 RMK AO2 SLP180 T01670061
KEEO 181253Z AUTO 00000KT 10SM CLR 13/05 A3033 RMK AO2 SLP181 T01330050
KEEO 181153Z AUTO 04004KT 10SM CLR 11/04 A3033 RMK AO2 SLP178 T01060044 10178 20106 51010
KEEO 181053Z AUTO 00000KT 10SM CLR 12/06 A3032 RMK AO2 SLP171 T01220056
KEEO 180953Z AUTO 07004KT 10SM FEW100 14/06 A3031 RMK AO2 SLP162 T01390056
KEEO 180853Z AUTO 10004KT 10SM SCT110 15/06 A3029 RMK AO2 SLP155 T01500061 50003
KEEO 180753Z AUTO 06004KT 10SM SCT100 15/05 A3030 RMK AO2 SLP157 T01500050
KEEO 180653Z AUTO 09007KT 10SM CLR 17/06 A3029 RMK AO2 SLP155 T01720056 403440100
KEEO 180553Z AUTO 05003KT 10SM CLR 16/05 A3028 RMK AO2 SLP152 T01610050 10317 20161 51010
KEEO 180453Z AUTO 00000KT 10SM CLR 18/06 A3028 RMK AO2 SLP154 T01830056
KEEO 180353Z AUTO 12003KT 10SM CLR 20/05 A3026 RMK AO2 SLP149 T02000050
KEEO 180253Z AUTO 27004KT 10SM CLR 25/04 A3024 RMK AO2 SLP142 T02500044 53005
KEEO 180153Z AUTO 21012KT 10SM CLR 26/06 A3023 RMK AO2 SLP141 T02610061
KEEO 180053Z AUTO 21012KT 10SM CLR 29/06 A3022 RMK AO2 SLP144 T02890061
KEEO 172353Z AUTO 27014G19KT 10SM CLR 32/02 A3023 RMK AO2 SLP139 T03170017 10344 20289 56006
KEEO 172253Z AUTO 29016G22KT 10SM FEW110 32/03 A3024 RMK AO2 WSHFT 2220 SLP145 T03170028
KEEO 172240Z AUTO 31013G23KT 10SM SCT110 32/03 A3024 RMK AO2 WSHFT 2220 T03170028
KEEO 172153Z AUTO 28013G23KT 10SM CLR 33/01 A3023 RMK AO2 WSHFT 2119 SLP133 T03280006
KEEO 172139Z AUTO 27013G25KT 10SM CLR 33/00 A3023 RMK AO2 WSHFT 2119 T03330000
KEEO 172053Z AUTO 27014G21KT 10SM CLR 32/02 A3025 RMK AO2 LTG DSNT S SLP143 T03220017 56016
KEEO 171953Z AUTO 20006KT 10SM FEW100 32/05 A3026 RMK AO2 SLP144 T03220050
KEEO 171853Z AUTO 24009G15KT 10SM CLR 31/04 A3029 RMK AO2 SLP154 T03060044
KEEO 171753Z AUTO VRB04KT 10SM CLR 30/06 A3030 RMK AO2 SLP160 T03000056 10300 20106 57012
KEEO 171653Z AUTO 00000KT 10SM CLR 27/07 A3032 RMK AO2 SLP172 T02720072